Time;durP1;ratioP1;P1;durP2;ratioP2;P2;SDS_P1;SDS_P2;PMS_P1;PMS_P2;Temp;Humidity;BMP_temperature;BMP_pressure;BME280_temperature;BME280_humidity;BME280_pressure;Samples;Min_cycle;Max_cycle;Signal;HPM_P1;HPM_P2
2023/03/21 00:01:26;;;;;;;33.40;7.20;;;17.30;59.50;;;;;;5067910;28;20204;-95
2023/03/21 00:04:29;;;;;;;45.97;8.17;;;17.20;59.40;;;;;;5069126;28;20210;-94
2023/03/21 00:07:11;;;;;;;38.50;7.93;;;17.10;59.30;;;;;;5069447;28;20212;-94
2023/03/21 00:09:38;;;;;;;32.83;7.87;;;17.20;59.40;;;;;;5066911;28;20328;-95
2023/03/21 00:12:08;;;;;;;28.53;6.87;;;17.20;59.40;;;;;;5052229;28;20229;-95
2023/03/21 00:14:40;;;;;;;41.00;7.67;;;17.20;59.40;;;;;;5069392;28;20275;-95
2023/03/21 00:17:09;;;;;;;38.13;7.70;;;17.20;59.40;;;;;;5069689;28;20208;-94
2023/03/21 00:19:40;;;;;;;41.13;7.87;;;17.30;59.50;;;;;;5068379;28;20228;-96
2023/03/21 00:22:07;;;;;;;31.27;7.37;;;17.20;60.00;;;;;;5070248;28;20212;-95
2023/03/21 00:24:34;;;;;;;43.07;8.20;;;17.20;59.40;;;;;;5069741;28;20208;-95
2023/03/21 00:27:01;;;;;;;34.00;6.97;;;17.20;59.50;;;;;;5068994;28;20206;-96
2023/03/21 00:29:29;;;;;;;30.50;6.83;;;17.20;59.50;;;;;;5068909;28;20271;-95
2023/03/21 00:31:57;;;;;;;37.73;7.27;;;17.20;59.50;;;;;;5081929;28;20213;-93
2023/03/21 00:34:24;;;;;;;29.57;6.90;;;17.20;59.40;;;;;;5080677;28;20228;-94
2023/03/21 00:36:54;;;;;;;49.40;7.93;;;17.20;59.40;;;;;;5068355;28;20205;-95
2023/03/21 00:39:21;;;;;;;47.17;7.87;;;17.20;59.40;;;;;;5063860;28;20208;-95
2023/03/21 00:41:50;;;;;;;32.97;6.73;;;17.20;59.40;;;;;;5050671;28;20211;-95
2023/03/21 00:44:17;;;;;;;36.37;7.30;;;17.20;59.50;;;;;;5066803;28;20210;-94
2023/03/21 00:46:45;;;;;;;32.53;6.90;;;17.20;59.50;;;;;;5072927;28;20206;-95
2023/03/21 00:49:12;;;;;;;32.33;6.90;;;17.20;59.40;;;;;;5072576;28;20205;-95
2023/03/21 00:51:39;;;;;;;34.57;7.27;;;17.20;59.50;;;;;;5071415;28;20292;-95
2023/03/21 00:54:08;;;;;;;37.90;7.60;;;17.20;59.50;;;;;;5072100;28;20213;-95
2023/03/21 00:56:35;;;;;;;26.27;6.87;;;17.20;59.50;;;;;;5073189;28;20304;-94
2023/03/21 00:59:01;;;;;;;39.63;8.30;;;17.20;59.40;;;;;;5072241;28;20243;-95
2023/03/21 01:01:30;;;;;;;40.67;7.90;;;17.20;59.50;;;;;;5071143;28;20225;-95
2023/03/21 01:04:02;;;;;;;31.03;7.90;;;17.20;59.50;;;;;;5071394;28;20218;-95
2023/03/21 01:06:29;;;;;;;48.20;8.20;;;17.20;59.50;;;;;;5071679;28;20678;-94
2023/03/21 01:08:56;;;;;;;38.47;7.20;;;17.20;59.50;;;;;;5054672;28;20307;-95
2023/03/21 01:11:27;;;;;;;31.10;6.90;;;17.20;59.50;;;;;;5053026;28;20766;-95
2023/03/21 01:13:55;;;;;;;52.83;8.93;;;17.20;59.50;;;;;;5061678;28;20210;-95
2023/03/21 01:16:22;;;;;;;30.63;7.00;;;17.20;59.50;;;;;;5073675;28;20204;-95
2023/03/21 01:18:51;;;;;;;37.93;7.80;;;17.20;59.50;;;;;;5071870;28;20209;-95
2023/03/21 01:21:18;;;;;;;47.47;8.80;;;17.20;59.50;;;;;;5072992;28;20732;-95
2023/03/21 01:23:45;;;;;;;41.27;8.23;;;17.20;59.50;;;;;;5072851;28;20203;-95
2023/03/21 01:26:13;;;;;;;38.10;8.07;;;17.10;59.40;;;;;;5072911;28;20340;-95
2023/03/21 01:28:43;;;;;;;32.47;7.23;;;17.10;59.40;;;;;;5072606;28;20210;-95
2023/03/21 01:31:13;;;;;;;29.23;7.03;;;17.20;59.50;;;;;;5073656;28;20213;-95
2023/03/21 01:33:40;;;;;;;35.00;7.60;;;17.10;59.40;;;;;;5072190;28;20205;-95
2023/03/21 01:36:09;;;;;;;38.37;7.50;;;17.10;59.40;;;;;;5072306;28;20622;-95
2023/03/21 01:38:38;;;;;;;55.27;9.13;;;17.10;60.00;;;;;;5068768;28;20284;-95
2023/03/21 01:41:05;;;;;;;98.23;12.73;;;17.20;59.50;;;;;;5080529;22;20239;-95
2023/03/21 01:43:35;;;;;;;26.00;6.50;;;17.10;59.30;;;;;;5092349;28;20312;-95
2023/03/21 01:46:25;;;;;;;39.07;8.03;;;17.20;59.50;;;;;;5092894;28;20407;-95
2023/03/21 01:49:07;;;;;;;;;;;;;;;;;;;;;
2023/03/21 01:51:38;;;;;;;33.53;7.10;;;17.10;59.40;;;;;;5091981;28;20198;-95
2023/03/21 01:54:09;;;;;;;34.87;7.40;;;17.20;59.50;;;;;;5092132;28;20231;-94
2023/03/21 01:56:38;;;;;;;37.67;7.13;;;17.10;59.40;;;;;;5092580;28;20282;-95
2023/03/21 01:59:21;;;;;;;32.67;7.40;;;17.10;59.40;;;;;;5090544;28;20203;-95
2023/03/21 02:01:51;;;;;;;39.73;7.97;;;17.20;59.60;;;;;;5092386;28;20316;-95
2023/03/21 02:04:27;;;;;;;33.27;7.53;;;17.10;59.40;;;;;;5092702;28;20195;-95
2023/03/21 02:06:59;;;;;;;62.47;9.70;;;17.10;59.40;;;;;;5090521;28;20202;-95
2023/03/21 02:09:31;;;;;;;30.17;7.03;;;17.10;59.40;;;;;;5091218;28;20687;-95
2023/03/21 02:11:59;;;;;;;35.97;7.87;;;17.10;59.40;;;;;;5090876;28;20211;-95
2023/03/21 02:14:31;;;;;;;34.57;7.23;;;17.10;59.40;;;;;;5092391;28;20202;-95
2023/03/21 02:17:08;;;;;;;56.93;9.10;;;17.10;59.40;;;;;;5091165;28;20867;-95
2023/03/21 02:20:21;;;;;;;34.13;7.43;;;17.10;59.40;;;;;;5089634;28;20508;-95
2023/03/21 02:23:33;;;;;;;34.47;7.50;;;17.10;59.40;;;;;;5082389;28;20778;-95
2023/03/21 02:26:40;;;;;;;40.17;8.07;;;17.10;59.40;;;;;;5083566;28;20226;-95
2023/03/21 02:29:20;;;;;;;54.93;9.13;;;17.10;59.40;;;;;;5091275;28;20207;-96
2023/03/21 02:31:58;;;;;;;41.10;8.17;;;17.10;59.40;;;;;;5091235;28;20294;-96
2023/03/21 02:34:51;;;;;;;34.40;7.97;;;17.20;59.50;;;;;;5091372;28;20214;-94
2023/03/21 02:37:23;;;;;;;34.13;7.33;;;17.10;59.40;;;;;;5091588;28;20289;-96
2023/03/21 02:40:00;;;;;;;39.20;8.53;;;17.10;59.40;;;;;;5092171;28;20211;-95
2023/03/21 02:42:34;;;;;;;41.60;8.10;;;17.10;59.40;;;;;;5091477;28;20212;-96
2023/03/21 02:45:21;;;;;;;56.87;9.30;;;17.10;59.50;;;;;;5089693;28;20572;-95
2023/03/21 02:47:51;;;;;;;38.60;7.33;;;17.10;59.40;;;;;;5089844;28;20214;-96
2023/03/21 02:50:24;;;;;;;40.40;7.40;;;17.00;59.30;;;;;;5091242;28;20823;-95
2023/03/21 02:52:53;;;;;;;47.67;8.60;;;17.00;59.30;;;;;;5091358;28;20226;-95
2023/03/21 02:55:25;;;;;;;31.53;7.30;;;17.10;59.50;;;;;;5091644;28;20244;-95
2023/03/21 02:57:54;;;;;;;42.03;7.90;;;17.10;59.50;;;;;;5090867;28;20297;-96
2023/03/21 03:00:23;;;;;;;36.00;7.93;;;17.10;59.50;;;;;;5091262;28;20234;-96
2023/03/21 03:02:50;;;;;;;46.23;8.83;;;17.10;59.50;;;;;;5091222;28;20211;-96
2023/03/21 03:05:19;;;;;;;37.77;8.03;;;17.10;59.50;;;;;;5090985;28;20202;-95
2023/03/21 03:08:02;;;;;;;29.93;7.23;;;17.10;59.50;;;;;;5090817;28;20297;-94
2023/03/21 03:10:44;;;;;;;36.87;7.83;;;17.20;59.60;;;;;;5090922;28;20210;-95
2023/03/21 03:13:21;;;;;;;36.20;8.10;;;17.10;59.50;;;;;;5089840;28;20205;-95
2023/03/21 03:16:01;;;;;;;34.77;8.07;;;17.10;59.50;;;;;;5089146;28;20543;-96
2023/03/21 03:18:35;;;;;;;37.90;7.17;;;17.10;59.50;;;;;;5091079;28;20189;-96
2023/03/21 03:21:10;;;;;;;35.27;7.70;;;17.10;59.50;;;;;;5090312;28;20565;-94
2023/03/21 03:23:44;;;;;;;28.67;7.33;;;17.00;59.40;;;;;;5091276;28;20725;-96
2023/03/21 03:26:17;;;;;;;43.23;8.60;;;17.10;59.50;;;;;;5090233;28;20219;-95
2023/03/21 03:28:52;;;;;;;37.33;7.93;;;17.00;59.40;;;;;;5091264;28;20213;-95
2023/03/21 03:31:24;;;;;;;38.97;8.50;;;17.10;59.40;;;;;;5090251;28;20293;-95
2023/03/21 03:33:55;;;;;;;39.23;8.03;;;17.10;59.50;;;;;;5089397;28;20202;-95
2023/03/21 03:36:27;;;;;;;34.00;7.53;;;17.10;59.50;;;;;;5090889;28;20208;-95
2023/03/21 03:38:57;;;;;;;55.03;9.43;;;17.00;59.40;;;;;;5088120;28;20702;-94
2023/03/21 03:41:27;;;;;;;31.17;7.63;;;17.10;59.50;;;;;;5089399;28;21145;-95
2023/03/21 03:43:57;;;;;;;28.23;7.47;;;17.00;59.40;;;;;;5090116;28;20286;-95
2023/03/21 03:46:29;;;;;;;59.50;9.97;;;17.10;59.50;;;;;;5089842;28;20220;-94
2023/03/21 03:49:01;;;;;;;42.60;8.33;;;17.10;59.50;;;;;;5089667;28;20276;-95
2023/03/21 03:51:35;;;;;;;30.53;7.70;;;17.00;59.40;;;;;;5092660;28;20198;-95
2023/03/21 03:54:09;;;;;;;53.53;9.80;;;17.20;59.50;;;;;;5101942;28;20271;-95
2023/03/21 03:56:37;;;;;;;39.43;8.17;;;17.00;59.40;;;;;;5097913;28;20678;-95
2023/03/21 03:59:06;;;;;;;43.17;8.87;;;17.00;59.30;;;;;;5091849;28;20673;-96
2023/03/21 04:01:33;;;;;;;33.33;8.10;;;17.10;59.40;;;;;;5090439;28;20229;-96
2023/03/21 04:04:01;;;;;;;43.73;8.27;;;17.00;59.40;;;;;;5090514;28;20206;-96
2023/03/21 04:06:28;;;;;;;29.57;6.90;;;17.00;59.30;;;;;;5091066;28;20688;-95
2023/03/21 04:08:55;;;;;;;30.20;7.07;;;17.00;59.30;;;;;;5089857;28;20205;-95
2023/03/21 04:11:24;;;;;;;39.27;8.30;;;17.00;59.30;;;;;;5090564;28;20212;-95
2023/03/21 04:13:51;;;;;;;37.00;7.97;;;17.10;59.40;;;;;;5089821;28;20657;-95
2023/03/21 04:16:18;;;;;;;29.13;7.73;;;17.00;59.40;;;;;;5090013;28;20207;-95
2023/03/21 04:18:47;;;;;;;27.80;7.40;;;17.00;59.30;;;;;;5089850;28;20208;-95
2023/03/21 04:21:14;;;;;;;28.23;6.93;;;17.00;59.30;;;;;;5092740;28;20259;-96
2023/03/21 04:23:42;;;;;;;37.07;8.10;;;17.00;59.30;;;;;;5093036;28;20206;-96
2023/03/21 04:26:09;;;;;;;41.17;8.67;;;17.00;59.30;;;;;;5094101;28;20229;-96
2023/03/21 04:28:39;;;;;;;49.23;8.73;;;17.00;59.30;;;;;;5093180;28;20224;-95
2023/03/21 04:31:08;;;;;;;38.23;8.00;;;17.00;59.30;;;;;;5093822;28;20209;-96
2023/03/21 04:33:37;;;;;;;48.83;8.97;;;17.00;59.40;;;;;;5092585;28;20801;-95
2023/03/21 04:36:08;;;;;;;38.20;8.17;;;17.00;59.30;;;;;;5094068;28;20270;-96
2023/03/21 04:38:35;;;;;;;33.13;7.77;;;17.00;59.40;;;;;;5080196;28;20217;-96
2023/03/21 04:41:03;;;;;;;32.77;7.83;;;17.00;59.40;;;;;;5074153;28;20233;-96
2023/03/21 04:43:30;;;;;;;35.10;7.70;;;17.10;59.50;;;;;;5074259;28;20212;-96
2023/03/21 04:45:59;;;;;;;36.00;7.83;;;17.00;59.40;;;;;;5072500;28;20206;-95
2023/03/21 04:48:26;;;;;;;48.43;8.67;;;17.00;59.40;;;;;;5075028;28;20603;-95
2023/03/21 04:50:54;;;;;;;38.10;7.07;;;17.00;59.30;;;;;;5092800;28;20208;-95
2023/03/21 04:53:21;;;;;;;47.23;8.87;;;17.00;59.40;;;;;;5091411;28;20247;-95
2023/03/21 04:55:48;;;;;;;37.83;7.47;;;17.00;59.40;;;;;;5073324;28;20187;-95
2023/03/21 04:58:40;;;;;;;48.67;8.57;;;17.10;59.50;;;;;;5073011;28;20217;-95
2023/03/21 05:01:09;;;;;;;29.63;6.93;;;17.00;59.40;;;;;;5079050;28;20230;-94
2023/03/21 05:03:39;;;;;;;31.67;7.40;;;17.00;59.40;;;;;;5092609;28;20234;-95
2023/03/21 05:06:07;;;;;;;39.10;7.70;;;17.00;59.40;;;;;;5093071;28;20635;-95
2023/03/21 05:08:34;;;;;;;40.30;7.53;;;17.00;59.40;;;;;;5091892;28;20213;-96
2023/03/21 05:11:03;;;;;;;43.03;8.20;;;17.00;59.40;;;;;;5092502;28;20313;-95
2023/03/21 05:13:30;;;;;;;42.93;8.07;;;17.10;59.50;;;;;;5091331;28;20276;-96
2023/03/21 05:15:56;;;;;;;28.17;6.50;;;17.00;59.40;;;;;;5092955;28;20217;-96
2023/03/21 05:18:25;;;;;;;36.63;6.87;;;17.00;59.40;;;;;;5092756;28;20201;-96
2023/03/21 05:20:54;;;;;;;45.53;7.67;;;17.00;59.40;;;;;;5093268;28;20657;-96
2023/03/21 05:23:21;;;;;;;60.73;9.10;;;17.00;59.40;;;;;;5085913;28;20673;-95
2023/03/21 05:25:50;;;;;;;37.10;7.43;;;17.00;59.40;;;;;;5092987;28;20228;-96
2023/03/21 05:28:18;;;;;;;32.90;6.57;;;17.00;59.40;;;;;;5092726;28;20230;-96
2023/03/21 05:30:47;;;;;;;31.77;6.40;;;17.00;60.00;;;;;;5092715;28;20273;-96
2023/03/21 05:33:14;;;;;;;33.37;6.57;;;17.00;59.40;;;;;;5092187;28;20230;-96
2023/03/21 05:35:43;;;;;;;30.70;6.90;;;17.00;59.40;;;;;;5091668;28;20207;-95
2023/03/21 05:38:10;;;;;;;40.17;8.13;;;17.00;59.40;;;;;;5092806;28;20201;-96
2023/03/21 05:40:37;;;;;;;34.60;7.20;;;17.00;59.40;;;;;;5092372;28;20296;-95
2023/03/21 05:43:05;;;;;;;33.10;7.20;;;17.00;59.40;;;;;;5091707;28;20229;-96
2023/03/21 05:45:32;;;;;;;36.80;7.20;;;17.00;59.40;;;;;;5092379;28;20210;-96
2023/03/21 05:48:01;;;;;;;35.47;6.57;;;17.00;59.40;;;;;;5094149;28;20274;-95
2023/03/21 05:50:28;;;;;;;38.93;7.80;;;17.00;59.30;;;;;;5090807;28;20216;-95
2023/03/21 05:52:56;;;;;;;38.83;7.07;;;17.10;59.50;;;;;;5090923;28;20208;-96
2023/03/21 05:55:23;;;;;;;36.17;7.40;;;17.00;59.30;;;;;;5091394;28;20259;-95
2023/03/21 05:57:51;;;;;;;41.83;7.93;;;17.10;59.50;;;;;;5090674;28;20666;-96
2023/03/21 06:00:20;;;;;;;45.53;7.80;;;17.00;59.40;;;;;;5090106;28;21066;-91
2023/03/21 06:02:47;;;;;;;33.87;7.13;;;17.00;59.40;;;;;;5089869;28;20229;-95
2023/03/21 06:05:15;;;;;;;32.83;6.70;;;17.00;59.40;;;;;;5089577;28;20276;-94
2023/03/21 06:07:42;;;;;;;39.40;7.70;;;17.00;59.30;;;;;;5090319;28;20296;-95
2023/03/21 06:10:11;;;;;;;48.77;8.27;;;17.00;59.30;;;;;;5090219;28;20263;-95
2023/03/21 06:12:39;;;;;;;35.37;6.93;;;17.00;59.40;;;;;;5089717;28;20732;-95
2023/03/21 06:15:11;;;;;;;47.63;8.00;;;17.10;59.50;;;;;;5084012;28;20533;-93
2023/03/21 06:17:38;;;;;;;43.43;7.10;;;17.00;59.40;;;;;;5090475;28;20206;-94
2023/03/21 06:20:07;;;;;;;36.30;6.67;;;17.10;59.50;;;;;;5091248;28;20207;-93
2023/03/21 06:25:48;;;;;;;30.63;6.33;;;17.10;60.10;;;;;;5075303;28;20233;-94
2023/03/21 06:28:15;;;;;;;42.43;7.40;;;17.10;59.50;;;;;;5090911;28;20298;-94
2023/03/21 06:30:42;;;;;;;46.20;8.10;;;17.00;59.30;;;;;;5089293;28;20538;-95
2023/03/21 06:33:09;;;;;;;45.67;7.73;;;17.00;59.30;;;;;;5087400;28;20213;-95
2023/03/21 06:35:36;;;;;;;27.30;6.43;;;17.00;59.40;;;;;;5082700;28;20292;-95
2023/03/21 06:38:03;;;;;;;32.17;6.97;;;17.00;59.40;;;;;;5089213;28;20204;-95
2023/03/21 06:40:30;;;;;;;59.87;9.40;;;17.10;59.40;;;;;;5091147;28;20288;-95
2023/03/21 06:43:04;;;;;;;36.60;7.30;;;17.10;59.80;;;;;;5090728;28;20319;-95
2023/03/21 06:45:31;;;;;;;40.50;7.27;;;17.00;59.30;;;;;;5088251;28;20205;-93
2023/03/21 06:47:58;;;;;;;54.80;8.60;;;17.00;59.40;;;;;;5088156;28;20214;-94
2023/03/21 06:50:25;;;;;;;40.33;7.40;;;17.00;59.40;;;;;;5091301;28;20607;-94
2023/03/21 06:52:53;;;;;;;65.77;9.17;;;17.00;59.30;;;;;;5091070;28;20596;-93
2023/03/21 06:55:24;;;;;;;30.40;6.87;;;17.00;59.30;;;;;;5091507;28;20291;-96
2023/03/21 06:57:52;;;;;;;38.23;7.77;;;17.00;59.40;;;;;;5094116;28;20195;-96
2023/03/21 07:03:05;;;;;;;32.07;7.43;;;17.00;59.40;;;;;;5091287;28;20256;-92
2023/03/21 07:05:36;;;;;;;43.43;8.33;;;17.00;59.40;;;;;;5098338;28;20198;-94
2023/03/21 07:08:03;;;;;;;48.77;8.43;;;17.00;59.40;;;;;;5089539;28;20230;-92
2023/03/21 07:13:49;;;;;;;41.37;8.33;;;17.00;59.40;;;;;;5067307;28;20812;-96
2023/03/21 07:16:20;;;;;;;49.73;9.73;;;17.10;59.40;;;;;;5092255;28;20205;-95
2023/03/21 07:18:47;;;;;;;46.90;9.47;;;17.00;59.40;;;;;;5104467;28;20206;-95
2023/03/21 07:21:14;;;;;;;43.90;9.73;;;17.00;59.40;;;;;;5104907;28;20206;-95
2023/03/21 07:24:16;;;;;;;49.50;9.30;;;17.00;59.30;;;;;;5104518;28;20196;-96
2023/03/21 07:26:44;;;;;;;50.90;10.03;;;17.00;59.50;;;;;;5101610;28;20251;-95
2023/03/21 07:29:11;;;;;;;44.93;9.67;;;17.00;59.30;;;;;;5092145;28;20538;-93
2023/03/21 07:31:42;;;;;;;40.93;8.93;;;17.00;59.40;;;;;;5091307;28;20309;-91
2023/03/21 07:34:10;;;;;;;43.00;9.30;;;17.00;59.40;;;;;;5090010;28;20301;-93
2023/03/21 07:36:37;;;;;;;43.67;9.70;;;17.00;59.50;;;;;;5090016;28;20214;-94
2023/03/21 07:39:05;;;;;;;39.83;8.77;;;17.00;59.50;;;;;;5089503;28;20292;-92
2023/03/21 07:41:32;;;;;;;43.83;9.63;;;17.00;59.50;;;;;;5089156;28;20651;-92
2023/03/21 07:44:07;;;;;;;46.43;9.47;;;17.00;59.50;;;;;;5089329;28;20213;-92
2023/03/21 07:46:34;;;;;;;41.05;9.27;;;17.00;59.50;;;;;;5089306;28;20530;-92
2023/03/21 07:49:04;;;;;;;46.77;9.50;;;17.00;59.90;;;;;;5089428;28;20208;-94
2023/03/21 07:51:34;;;;;;;41.67;9.03;;;16.90;59.80;;;;;;5088884;28;20205;-92
2023/03/21 07:54:01;;;;;;;47.23;9.43;;;17.00;59.70;;;;;;5088498;28;20312;-94
2023/03/21 07:56:28;;;;;;;40.20;8.87;;;17.00;59.70;;;;;;5089172;28;20303;-94
2023/03/21 07:58:58;;;;;;;51.17;10.10;;;17.00;59.60;;;;;;5089442;28;20298;-92
2023/03/21 08:01:26;;;;;;;34.77;8.57;;;17.00;59.50;;;;;;5088582;28;20201;-94
2023/03/21 08:03:53;;;;;;;39.40;8.57;;;17.10;59.50;;;;;;5087015;28;20294;-94
2023/03/21 08:06:22;;;;;;;46.03;9.23;;;17.10;59.50;;;;;;5087943;28;20226;-95
2023/03/21 08:08:49;;;;;;;47.67;9.73;;;17.00;59.40;;;;;;5087865;28;20258;-93
2023/03/21 08:11:17;;;;;;;51.37;9.60;;;17.00;59.50;;;;;;5089403;28;20210;-93
2023/03/21 08:13:46;;;;;;;38.30;9.20;;;17.10;59.60;;;;;;5089503;28;20300;-93
2023/03/21 08:16:13;;;;;;;45.60;10.33;;;17.00;59.50;;;;;;5081942;28;20383;-93
2023/03/21 08:18:41;;;;;;;41.80;9.37;;;17.00;59.50;;;;;;5069610;28;20626;-92
2023/03/21 08:21:08;;;;;;;32.53;8.67;;;17.00;59.50;;;;;;5069342;28;20294;-93
2023/03/21 08:23:37;;;;;;;42.20;9.20;;;17.00;59.50;;;;;;5068667;28;20234;-93
2023/03/21 08:26:04;;;;;;;40.23;8.57;;;17.10;59.60;;;;;;5069080;28;20226;-95
2023/03/21 08:28:31;;;;;;;40.57;8.17;;;17.10;59.60;;;;;;5068653;28;20190;-93
2023/03/21 08:30:59;;;;;;;47.23;9.57;;;17.10;59.70;;;;;;5079637;28;20210;-93
2023/03/21 08:33:26;;;;;;;33.23;7.87;;;17.00;59.60;;;;;;5091614;28;20207;-95
2023/03/21 08:35:53;;;;;;;44.33;9.27;;;17.10;59.70;;;;;;5088971;28;20238;-92
2023/03/21 08:38:20;;;;;;;49.03;10.27;;;17.10;59.70;;;;;;5087013;28;20208;-93
2023/03/21 08:40:53;;;;;;;37.63;9.23;;;17.10;59.80;;;;;;5089094;28;20213;-93
2023/03/21 08:43:20;;;;;;;32.00;8.30;;;17.10;59.80;;;;;;5088818;28;20341;-93
2023/03/21 08:45:47;;;;;;;45.47;9.40;;;17.10;59.70;;;;;;5088171;28;20207;-93
2023/03/21 08:48:14;;;;;;;44.43;9.87;;;17.10;59.70;;;;;;5089310;28;20663;-93
2023/03/21 08:50:41;;;;;;;40.97;8.97;;;17.10;59.70;;;;;;5089151;28;20674;-93
2023/03/21 08:53:08;;;;;;;41.67;8.60;;;17.10;59.70;;;;;;5088769;28;20214;-93
2023/03/21 08:55:35;;;;;;;31.97;8.00;;;17.00;59.60;;;;;;5088978;28;20226;-93
2023/03/21 08:58:05;;;;;;;41.40;8.40;;;17.10;59.80;;;;;;5088793;28;20238;-93
2023/03/21 09:00:32;;;;;;;37.40;8.17;;;17.10;59.80;;;;;;5087213;28;20204;-93
2023/03/21 09:02:59;;;;;;;41.77;8.97;;;17.10;59.80;;;;;;5088572;28;20229;-93
2023/03/21 09:05:27;;;;;;;52.77;9.13;;;17.10;59.80;;;;;;5088630;28;20202;-93
2023/03/21 09:07:54;;;;;;;40.57;8.33;;;17.10;59.80;;;;;;5092511;28;20668;-93
2023/03/21 09:10:22;;;;;;;38.40;8.03;;;17.10;59.70;;;;;;5092676;28;20209;-93
2023/03/21 09:12:51;;;;;;;38.67;8.33;;;17.10;59.80;;;;;;5092011;28;20293;-93
2023/03/21 09:15:23;;;;;;;34.00;8.23;;;17.10;59.80;;;;;;5091207;28;20294;-93
2023/03/21 09:17:51;;;;;;;31.50;7.93;;;17.10;59.80;;;;;;5092385;28;20201;-93
2023/03/21 09:20:24;;;;;;;37.83;8.60;;;17.20;59.90;;;;;;5092399;28;20954;-93
2023/03/21 09:22:52;;;;;;;39.70;8.33;;;17.10;59.80;;;;;;5089782;28;20219;-93
2023/03/21 09:25:20;;;;;;;35.57;7.90;;;17.10;59.70;;;;;;5091666;28;20285;-93
2023/03/21 09:27:47;;;;;;;39.37;8.20;;;17.10;59.80;;;;;;5092303;28;20593;-94
2023/03/21 09:30:15;;;;;;;42.40;8.53;;;17.10;59.70;;;;;;5090501;28;20212;-93
2023/03/21 09:32:47;;;;;;;43.03;9.40;;;17.20;59.90;;;;;;5090299;28;20666;-93
2023/03/21 09:35:16;;;;;;;39.43;8.10;;;17.20;59.90;;;;;;5091784;28;20656;-94
2023/03/21 09:37:44;;;;;;;40.03;8.57;;;17.20;59.90;;;;;;5092231;28;20232;-93
2023/03/21 09:40:18;;;;;;;37.30;8.17;;;17.20;59.90;;;;;;5091662;28;20207;-94
2023/03/21 09:42:57;;;;;;;35.87;7.67;;;17.20;59.90;;;;;;5091509;28;20691;-92
2023/03/21 09:45:33;;;;;;;41.03;8.57;;;17.20;59.90;;;;;;5092386;28;20233;-93
2023/03/21 09:48:02;;;;;;;41.67;8.77;;;17.20;59.90;;;;;;5091792;28;20201;-93
2023/03/21 09:50:32;;;;;;;35.93;7.77;;;17.20;59.90;;;;;;5090889;28;20224;-93
2023/03/21 09:53:02;;;;;;;43.87;8.33;;;17.20;59.90;;;;;;5091529;28;20214;-93
2023/03/21 09:55:33;;;;;;;40.03;8.30;;;17.20;59.90;;;;;;5091015;28;20861;-93
2023/03/21 09:58:05;;;;;;;41.37;8.13;;;17.20;59.90;;;;;;5091105;28;20294;-93
2023/03/21 10:00:36;;;;;;;62.07;10.37;;;17.20;59.90;;;;;;5088938;28;20210;-93
2023/03/21 10:03:10;;;;;;;45.97;9.03;;;17.20;59.90;;;;;;5090537;28;20321;-94
2023/03/21 10:05:43;;;;;;;42.33;8.87;;;17.20;59.90;;;;;;5092552;28;20289;-93
2023/03/21 10:08:18;;;;;;;40.33;8.63;;;17.20;59.90;;;;;;5089902;28;20674;-94
2023/03/21 10:10:49;;;;;;;39.83;8.27;;;17.20;59.90;;;;;;5091163;28;20211;-93
2023/03/21 10:13:21;;;;;;;42.83;8.47;;;17.20;59.90;;;;;;5088621;28;20205;-94
2023/03/21 10:15:48;;;;;;;42.80;8.63;;;17.20;59.90;;;;;;5091637;28;20204;-92
2023/03/21 10:18:23;;;;;;;42.77;8.43;;;17.20;59.90;;;;;;5090589;28;20301;-93
2023/03/21 10:20:52;;;;;;;38.20;7.93;;;17.30;60.00;;;;;;5092077;28;20317;-94
2023/03/21 10:23:21;;;;;;;48.40;8.77;;;17.30;59.90;;;;;;5088569;28;20228;-93
2023/03/21 10:25:51;;;;;;;37.70;7.67;;;17.20;59.90;;;;;;5089643;28;20368;-93
2023/03/21 10:28:26;;;;;;;47.80;9.13;;;17.30;60.00;;;;;;5090966;28;20256;-93
2023/03/21 10:30:54;;;;;;;45.47;8.27;;;17.30;60.00;;;;;;5090576;28;20293;-94
2023/03/21 10:33:25;;;;;;;38.93;7.93;;;17.30;60.00;;;;;;5090620;28;20297;-93
2023/03/21 10:35:55;;;;;;;45.63;8.40;;;17.30;60.00;;;;;;5091335;28;20602;-93
2023/03/21 10:38:25;;;;;;;47.07;7.97;;;17.30;60.00;;;;;;5103722;28;20264;-92
2023/03/21 10:40:56;;;;;;;46.43;8.10;;;17.30;59.90;;;;;;5092386;28;20268;-93
2023/03/21 10:43:37;;;;;;;38.10;7.50;;;17.30;59.90;;;;;;5091673;28;20260;-93
2023/03/21 10:46:11;;;;;;;51.47;8.80;;;17.30;60.00;;;;;;5090407;28;20296;-93
2023/03/21 10:48:45;;;;;;;36.67;7.07;;;17.40;60.00;;;;;;5092056;28;20629;-93
2023/03/21 10:51:19;;;;;;;42.57;8.03;;;17.40;60.00;;;;;;5091886;28;20196;-94
2023/03/21 10:53:51;;;;;;;34.90;7.23;;;17.40;60.10;;;;;;5089408;28;20206;-92
2023/03/21 10:56:18;;;;;;;44.37;8.33;;;17.40;60.10;;;;;;5090844;28;20216;-93
2023/03/21 10:58:47;;;;;;;31.07;7.33;;;17.40;60.10;;;;;;5090500;28;20223;-93
2023/03/21 11:01:24;;;;;;;42.90;8.30;;;17.40;60.90;;;;;;5089128;28;20209;-93
2023/03/21 11:03:57;;;;;;;31.63;6.90;;;17.30;60.00;;;;;;5092184;28;20229;-93
2023/03/21 11:06:29;;;;;;;36.40;7.77;;;17.40;60.10;;;;;;5090580;28;20206;-93
2023/03/21 11:09:00;;;;;;;42.80;7.77;;;17.40;60.10;;;;;;5090219;28;20209;-93
2023/03/21 11:11:28;;;;;;;35.53;7.07;;;17.50;60.20;;;;;;5089984;28;20214;-93
2023/03/21 11:13:58;;;;;;;37.03;7.20;;;17.40;60.10;;;;;;5090014;28;20668;-94
2023/03/21 11:16:31;;;;;;;40.27;7.70;;;17.40;60.10;;;;;;5089108;28;20198;-94
2023/03/21 11:19:04;;;;;;;47.27;8.23;;;17.50;60.20;;;;;;5090423;28;20210;-94
2023/03/21 11:21:36;;;;;;;39.37;7.20;;;17.40;60.10;;;;;;5090692;28;20252;-94
2023/03/21 11:24:06;;;;;;;32.73;6.63;;;17.50;60.20;;;;;;5090263;28;20380;-94
2023/03/21 11:26:36;;;;;;;41.13;7.77;;;17.50;60.20;;;;;;5090266;28;20254;-93
2023/03/21 11:29:14;;;;;;;41.40;7.57;;;17.50;60.20;;;;;;5088381;28;20297;-93
2023/03/21 11:31:43;;;;;;;31.87;7.00;;;17.50;60.20;;;;;;5087622;28;20208;-93
2023/03/21 11:34:25;;;;;;;36.10;6.97;;;17.60;60.20;;;;;;5089538;28;20245;-92
2023/03/21 11:36:58;;;;;;;38.23;7.53;;;17.60;60.30;;;;;;5089601;28;20221;-94
2023/03/21 11:39:32;;;;;;;35.87;7.03;;;17.60;60.30;;;;;;5089704;28;20247;-94
2023/03/21 11:41:59;;;;;;;52.87;8.13;;;17.60;60.30;;;;;;5090706;28;20311;-94
2023/03/21 11:44:29;;;;;;;38.57;7.03;;;17.60;60.20;;;;;;5089248;28;20324;-93
2023/03/21 11:46:57;;;;;;;43.10;7.60;;;17.60;60.30;;;;;;5089720;28;20217;-93
2023/03/21 11:49:26;;;;;;;41.93;7.83;;;17.60;60.20;;;;;;5089251;28;20205;-94
2023/03/21 11:52:11;;;;;;;39.77;7.27;;;17.60;60.30;;;;;;5089497;28;20221;-92
2023/03/21 11:54:56;;;;;;;35.77;7.10;;;17.60;60.30;;;;;;5089529;28;20292;-93
2023/03/21 11:57:34;;;;;;;35.83;6.83;;;17.60;60.30;;;;;;5089975;28;20205;-93
2023/03/21 12:00:09;;;;;;;37.47;7.43;;;17.60;60.30;;;;;;5088220;28;20214;-93
2023/03/21 12:03:03;;;;;;;40.87;7.33;;;17.70;60.40;;;;;;5089268;28;20205;-95
2023/03/21 12:05:34;;;;;;;40.40;7.33;;;17.60;60.30;;;;;;5089481;28;20644;-93
2023/03/21 12:08:08;;;;;;;45.53;8.27;;;17.70;60.40;;;;;;5089677;28;20222;-93
2023/03/21 12:10:43;;;;;;;39.07;7.13;;;17.70;60.40;;;;;;5087488;28;20205;-93
2023/03/21 12:13:41;;;;;;;29.27;6.10;;;17.70;60.40;;;;;;5089098;28;20185;-93
2023/03/21 12:16:22;;;;;;;36.30;7.07;;;17.70;60.40;;;;;;5077243;28;20311;-93
2023/03/21 12:19:09;;;;;;;39.93;7.33;;;17.70;60.40;;;;;;5089285;28;20307;-93
2023/03/21 12:21:48;;;;;;;31.93;6.77;;;17.70;60.40;;;;;;5089521;28;20232;-94
2023/03/21 12:24:19;;;;;;;38.80;7.13;;;17.70;60.40;;;;;;5087794;28;20263;-93
2023/03/21 12:26:56;;;;;;;43.30;7.13;;;17.70;60.40;;;;;;5089449;28;20233;-93
2023/03/21 12:29:49;;;;;;;36.33;7.30;;;17.80;60.50;;;;;;5089238;28;20199;-94
2023/03/21 12:32:28;;;;;;;37.20;6.97;;;17.80;60.50;;;;;;5089123;28;20286;-94
2023/03/21 12:35:09;;;;;;;34.17;6.87;;;17.80;60.50;;;;;;5089670;28;20248;-93
2023/03/21 12:37:47;;;;;;;40.27;7.30;;;17.80;60.50;;;;;;5088078;28;20629;-92
2023/03/21 12:40:26;;;;;;;35.20;6.47;;;17.80;60.50;;;;;;5089094;28;20674;-93
2023/03/21 12:43:14;;;;;;;40.30;7.43;;;17.80;60.50;;;;;;5092301;28;20301;-93
2023/03/21 12:45:45;;;;;;;31.37;6.07;;;17.80;60.50;;;;;;5091151;28;20256;-92
2023/03/21 12:48:21;;;;;;;38.30;7.17;;;17.80;60.50;;;;;;5093044;28;20239;-94
2023/03/21 12:50:51;;;;;;;38.00;6.93;;;17.80;60.50;;;;;;5092608;28;20654;-93
2023/03/21 12:53:34;;;;;;;32.23;6.27;;;17.80;60.50;;;;;;5091529;28;20217;-93
2023/03/21 12:56:05;;;;;;;33.97;6.60;;;17.90;60.60;;;;;;5092797;28;20576;-93
2023/03/21 12:58:39;;;;;;;32.77;6.40;;;17.90;60.60;;;;;;5092714;28;20202;-93
2023/03/21 13:01:08;;;;;;;38.23;6.87;;;17.90;60.60;;;;;;5092600;28;20210;-93
2023/03/21 13:03:40;;;;;;;31.00;6.60;;;17.90;60.60;;;;;;5092639;28;20335;-94
2023/03/21 13:06:10;;;;;;;34.63;6.77;;;17.90;60.60;;;;;;5092163;28;20262;-93
2023/03/21 13:08:41;;;;;;;35.73;6.77;;;17.90;60.60;;;;;;5092350;28;20290;-92